Time;durP1;ratioP1;P1;durP2;ratioP2;P2;SDS_P1;SDS_P2;PMS_P1;PMS_P2;Temp;Humidity;BMP_temperature;BMP_pressure;BME280_temperature;BME280_humidity;BME280_pressure;Samples;Min_cycle;Max_cycle;Signal;HPM_P1;HPM_P2
2024/01/10 00:00:16;;;;;;;;;;;;;;;3.96;73.53;102518.28;7298285;19;20416;-69
2024/01/10 00:02:43;;;;;;;;;;;;;;;3.93;74.41;102521.84;7300621;19;20458;-72
2024/01/10 00:05:10;;;;;;;;;;;;;;;3.95;73.98;102527.00;7316795;19;20310;-69
2024/01/10 00:07:37;;;;;;;;;;;;;;;3.91;73.71;102518.50;7282385;19;20182;-69
2024/01/10 00:10:04;;;;;;;;;;;;;;;3.91;74.19;102518.50;7284951;19;20603;-70
2024/01/10 00:12:35;;;;;;;;;;;;;;;3.92;74.10;102527.13;7294319;19;19922;-69
2024/01/10 00:15:03;;;;;;;;;;;;;;;3.90;74.51;102524.59;7295744;19;19938;-69
2024/01/10 00:17:33;;;;;;;;;;;;;;;3.94;76.46;102522.69;7291658;19;19935;-71
2024/01/10 00:20:00;;;;;;;;;;;;;;;3.89;75.51;102522.91;7291782;19;20588;-68
2024/01/10 00:22:27;;;;;;;;;;;;;;;3.88;76.08;102518.59;7283655;19;19923;-70
2024/01/10 00:24:54;;;;;;;;;;;;;;;3.85;74.98;102521.34;7286204;19;19923;-69
2024/01/10 00:27:21;;;;;;;;;;;;;;;3.83;75.11;102523.16;7283376;19;19933;-70
2024/01/10 00:29:48;;;;;;;;;;;;;;;3.81;75.20;102522.38;7309057;19;20589;-69
2024/01/10 00:32:15;;;;;;;;;;;;;;;3.81;76.27;102523.22;7304535;19;19927;-70
2024/01/10 00:34:42;;;;;;;;;;;;;;;3.78;76.17;102520.78;7292758;19;20398;-70
2024/01/10 00:37:09;;;;;;;;;;;;;;;3.79;76.01;102519.00;7290948;19;20486;-68
2024/01/10 00:39:36;;;;;;;;;;;;;;;3.78;75.61;102522.53;7298789;19;20440;-70
2024/01/10 00:42:03;;;;;;;;;;;;;;;3.74;76.06;102523.56;7279891;19;19929;-71
2024/01/10 00:44:30;;;;;;;;;;;;;;;3.74;75.80;102519.22;7289048;19;21123;-70
2024/01/10 00:46:57;;;;;;;;;;;;;;;3.72;75.82;102518.44;7303351;19;20692;-70
2024/01/10 00:49:23;;;;;;;;;;;;;;;3.65;75.85;102514.41;7299927;19;19911;-70
2024/01/10 00:51:50;;;;;;;;;;;;;;;3.71;77.64;102519.34;7293874;19;19919;-70
2024/01/10 00:54:17;;;;;;;;;;;;;;;3.72;77.29;102507.16;7294576;19;19978;-71
2024/01/10 00:56:44;;;;;;;;;;;;;;;3.72;76.47;102515.81;7280609;19;20439;-70
2024/01/10 00:59:11;;;;;;;;;;;;;;;3.73;76.22;102508.88;7283853;19;20330;-69
2024/01/10 01:01:38;;;;;;;;;;;;;;;3.77;75.89;102508.66;7278413;19;20323;-71
2024/01/10 01:04:05;;;;;;;;;;;;;;;3.74;76.15;102511.41;7295697;19;19919;-71
2024/01/10 01:06:32;;;;;;;;;;;;;;;3.76;75.79;102498.31;7297155;19;20005;-70
2024/01/10 01:08:59;;;;;;;;;;;;;;;3.72;75.41;102497.59;7284244;19;19927;-71
2024/01/10 01:13:56;;;;;;;;;;;;;;;3.70;76.09;102507.25;7298974;19;21985;-70
2024/01/10 01:16:23;;;;;;;;;;;;;;;3.73;75.72;102495.84;7280341;19;19915;-69
2024/01/10 01:18:50;;;;;;;;;;;;;;;3.72;76.36;102513.22;7290327;19;19942;-72
2024/01/10 01:21:17;;;;;;;;;;;;;;;3.69;75.65;102507.31;7297694;19;21172;-69
2024/01/10 01:23:44;;;;;;;;;;;;;;;3.62;75.41;102491.13;7311855;19;21029;-70
2024/01/10 01:26:13;;;;;;;;;;;;;;;3.58;75.99;102493.91;7307415;19;19923;-71
2024/01/10 01:28:40;;;;;;;;;;;;;;;3.57;75.84;102493.06;7303911;19;19955;-69
2024/01/10 01:31:07;;;;;;;;;;;;;;;3.56;75.99;102496.56;7297333;19;20342;-70
2024/01/10 01:33:34;;;;;;;;;;;;;;;3.59;76.31;102493.88;7286208;19;19967;-70
2024/01/10 01:36:03;;;;;;;;;;;;;;;3.60;75.85;102495.56;7288319;19;19918;-69
2024/01/10 01:38:30;;;;;;;;;;;;;;;3.56;75.82;102499.19;7279219;19;19926;-70
2024/01/10 01:40:57;;;;;;;;;;;;;;;3.54;76.34;102494.97;7287663;19;20205;-70
2024/01/10 01:43:25;;;;;;;;;;;;;;;3.54;75.99;102487.16;7289061;19;20720;-70
2024/01/10 01:45:54;;;;;;;;;;;;;;;3.58;76.82;102483.50;7279760;19;20186;-71
2024/01/10 01:48:22;;;;;;;;;;;;;;;3.61;76.53;102480.75;7294072;19;20288;-70
2024/01/10 01:50:56;;;;;;;;;;;;;;;3.57;75.60;102477.47;7303216;19;19942;-70
2024/01/10 01:53:29;;;;;;;;;;;;;;;3.50;75.69;102483.00;7276882;19;19925;-72
2024/01/10 01:55:57;;;;;;;;;;;;;;;3.51;76.02;102489.88;7273868;19;19919;-71
2024/01/10 01:58:24;;;;;;;;;;;;;;;3.51;75.79;102490.72;7281597;19;19927;-69
2024/01/10 02:00:54;;;;;;;;;;;;;;;3.47;75.95;102485.72;7293459;19;20159;-70
2024/01/10 02:03:26;;;;;;;;;;;;;;;3.40;75.78;102491.19;7290202;19;20481;-72
2024/01/10 02:06:03;;;;;;;;;;;;;;;3.45;76.78;102478.81;7278838;19;20411;-69
2024/01/10 02:08:43;;;;;;;;;;;;;;;3.46;76.27;102484.88;7281971;19;20350;-69
2024/01/10 02:11:16;;;;;;;;;;;;;;;3.42;76.36;102484.19;7279801;19;20003;-68
2024/01/10 02:13:43;;;;;;;;;;;;;;;3.43;75.92;102488.47;7291407;19;19945;-69
2024/01/10 02:16:11;;;;;;;;;;;;;;;3.40;76.14;102485.97;7279814;19;20992;-71
2024/01/10 02:18:44;;;;;;;;;;;;;;;3.42;76.14;102483.31;7291149;19;20007;-69
2024/01/10 02:21:11;;;;;;;;;;;;;;;3.47;76.47;102496.97;7286060;19;19923;-69
2024/01/10 02:23:38;;;;;;;;;;;;;;;3.44;76.02;102491.94;7286941;19;19921;-72
2024/01/10 02:26:06;;;;;;;;;;;;;;;3.43;76.57;102483.28;7285613;19;20602;-70
2024/01/10 02:28:33;;;;;;;;;;;;;;;3.48;76.12;102488.28;7293637;19;19915;-70
2024/01/10 02:31:01;;;;;;;;;;;;;;;3.51;76.30;102484.69;7293451;19;19919;-69
2024/01/10 02:33:33;;;;;;;;;;;;;;;3.53;76.10;102488.91;7281001;19;19923;-70
2024/01/10 02:36:02;;;;;;;;;;;;;;;3.49;75.70;102489.97;7306545;19;19941;-69
2024/01/10 02:38:38;;;;;;;;;;;;;;;3.44;75.81;102479.75;7290122;19;20003;-70
2024/01/10 02:41:05;;;;;;;;;;;;;;;3.47;75.64;102477.94;7287053;19;19990;-69
2024/01/10 02:43:32;;;;;;;;;;;;;;;3.37;76.02;102478.31;7319129;19;19934;-69
2024/01/10 02:46:00;;;;;;;;;;;;;;;3.39;76.42;102475.66;7315031;19;20222;-69
2024/01/10 02:48:27;;;;;;;;;;;;;;;3.41;76.34;102476.44;7297877;19;20352;-69
2024/01/10 02:50:55;;;;;;;;;;;;;;;3.38;76.35;102471.38;7286442;19;19922;-68
2024/01/10 02:53:22;;;;;;;;;;;;;;;3.42;76.49;102472.91;7293450;19;19942;-69
2024/01/10 02:55:50;;;;;;;;;;;;;;;3.43;76.30;102472.03;7305187;19;20327;-71
2024/01/10 02:58:17;;;;;;;;;;;;;;;3.45;76.37;102468.41;7296917;19;19929;-71
2024/01/10 03:00:44;;;;;;;;;;;;;;;3.42;76.70;102467.72;7291050;19;22566;-71
2024/01/10 03:03:11;;;;;;;;;;;;;;;3.47;77.85;102460.56;7299458;19;20319;-70
2024/01/10 03:05:38;;;;;;;;;;;;;;;3.51;76.73;102467.31;7293490;19;19975;-71
2024/01/10 03:08:06;;;;;;;;;;;;;;;3.54;77.15;102448.13;7283448;19;21559;-70
2024/01/10 03:10:33;;;;;;;;;;;;;;;3.51;76.75;102459.50;7298562;19;19940;-71
2024/01/10 03:13:02;;;;;;;;;;;;;;;3.49;76.61;102448.34;7297849;19;20598;-69
2024/01/10 03:15:30;;;;;;;;;;;;;;;3.51;77.35;102458.66;7291346;19;19982;-71
2024/01/10 03:17:57;;;;;;;;;;;;;;;3.49;76.88;102450.09;7287384;19;19915;-69
2024/01/10 03:20:25;;;;;;;;;;;;;;;3.48;77.59;102458.81;7300439;19;21565;-71
2024/01/10 03:22:52;;;;;;;;;;;;;;;3.47;77.54;102450.16;7300001;19;20513;-70
2024/01/10 03:25:19;;;;;;;;;;;;;;;3.50;77.90;102449.19;7278734;19;20805;-69
2024/01/10 03:27:46;;;;;;;;;;;;;;;3.38;77.28;102446.22;7291417;19;20522;-71
2024/01/10 03:30:13;;;;;;;;;;;;;;;3.38;77.72;102450.56;7296597;19;19923;-72
2024/01/10 03:32:40;;;;;;;;;;;;;;;3.42;77.90;102449.50;7284107;19;20001;-71
2024/01/10 03:35:08;;;;;;;;;;;;;;;3.37;77.52;102448.88;7286675;19;20076;-68
2024/01/10 03:37:35;;;;;;;;;;;;;;;3.39;78.12;102444.47;7281034;19;19934;-72
2024/01/10 03:40:02;;;;;;;;;;;;;;;3.39;77.73;102442.69;7292691;19;19919;-69
2024/01/10 03:42:29;;;;;;;;;;;;;;;3.39;78.40;102441.84;7286361;19;19923;-69
2024/01/10 03:44:57;;;;;;;;;;;;;;;3.36;77.88;102442.81;7281801;19;20191;-68
2024/01/10 03:47:24;;;;;;;;;;;;;;;3.35;77.93;102438.53;7292270;19;21028;-70
2024/01/10 03:49:51;;;;;;;;;;;;;;;3.40;78.84;102435.75;7294166;19;19919;-70
2024/01/10 03:52:19;;;;;;;;;;;;;;;3.38;77.87;102446.22;7292079;19;19923;-68
2024/01/10 03:54:46;;;;;;;;;;;;;;;3.39;77.69;102437.50;7294824;19;20201;-69
2024/01/10 03:57:13;;;;;;;;;;;;;;;3.39;78.05;102436.66;7290814;19;19915;-70
2024/01/10 03:59:40;;;;;;;;;;;;;;;3.39;77.67;102444.47;7298530;19;19949;-69
2024/01/10 04:02:07;;;;;;;;;;;;;;;3.38;77.56;102438.41;7293877;19;21458;-69
2024/01/10 04:04:36;;;;;;;;;;;;;;;3.36;77.85;102436.75;7297401;19;19918;-72
2024/01/10 04:07:09;;;;;;;;;;;;;;;3.36;77.93;102439.38;7275030;19;20392;-69
2024/01/10 04:09:36;;;;;;;;;;;;;;;3.34;77.42;102441.22;7296514;19;20517;-69
2024/01/10 04:12:03;;;;;;;;;;;;;;;3.34;77.50;102438.59;7278180;19;20120;-70
2024/01/10 04:14:30;;;;;;;;;;;;;;;3.37;77.50;102433.25;7297902;19;20325;-71
2024/01/10 04:16:59;;;;;;;;;;;;;;;3.35;77.57;102445.50;7286549;19;19926;-69
2024/01/10 04:19:26;;;;;;;;;;;;;;;3.31;77.17;102442.16;7292394;19;19965;-69
2024/01/10 04:21:53;;;;;;;;;;;;;;;3.31;77.67;102438.72;7299516;19;19955;-71
2024/01/10 04:24:20;;;;;;;;;;;;;;;3.30;77.85;102426.66;7286754;19;19915;-71
2024/01/10 04:26:47;;;;;;;;;;;;;;;3.37;77.88;102431.50;7298914;19;20576;-69
2024/01/10 04:29:14;;;;;;;;;;;;;;;3.36;77.82;102421.16;7288382;19;19944;-72
2024/01/10 04:31:41;;;;;;;;;;;;;;;3.35;77.49;102420.31;7294233;19;19915;-69
2024/01/10 04:34:08;;;;;;;;;;;;;;;3.36;77.17;102428.97;7294264;19;19934;-69
2024/01/10 04:36:35;;;;;;;;;;;;;;;3.38;77.60;102429.75;7292631;19;19922;-69
2024/01/10 04:39:02;;;;;;;;;;;;;;;3.37;77.18;102421.09;7291225;19;20545;-69
2024/01/10 04:41:29;;;;;;;;;;;;;;;3.38;76.33;102422.78;7286019;19;19955;-69
2024/01/10 04:43:57;;;;;;;;;;;;;;;3.39;76.21;102421.03;7281336;19;19966;-70
2024/01/10 04:46:24;;;;;;;;;;;;;;;3.33;75.33;102416.09;7293423;19;19921;-71
2024/01/10 04:48:50;;;;;;;;;;;;;;;3.36;75.84;102415.97;7291526;19;19930;-69
2024/01/10 04:51:18;;;;;;;;;;;;;;;3.33;75.78;102423.91;7287886;19;19917;-71
2024/01/10 04:53:48;;;;;;;;;;;;;;;3.33;75.07;102418.72;7294222;19;19925;-68
2024/01/10 04:56:33;;;;;;;;;;;;;;;3.33;74.60;102426.50;7290255;19;19922;-71
2024/01/10 04:58:59;;;;;;;;;;;;;;;3.32;75.29;102415.25;7305505;19;21212;-69
2024/01/10 05:01:27;;;;;;;;;;;;;;;3.28;74.67;102421.50;7313095;19;20380;-68
2024/01/10 05:03:56;;;;;;;;;;;;;;;3.27;74.86;102421.56;7298620;19;20979;-72
2024/01/10 05:06:23;;;;;;;;;;;;;;;3.31;73.22;102423.97;7310108;19;19915;-71
2024/01/10 05:08:50;;;;;;;;;;;;;;;3.32;72.62;102425.66;7305126;19;19919;-69
2024/01/10 05:11:17;;;;;;;;;;;;;;;3.25;72.28;102421.63;7311403;19;19930;-69
2024/01/10 05:13:44;;;;;;;;;;;;;;;3.27;72.35;102419.81;7312523;19;19922;-70
2024/01/10 05:16:11;;;;;;;;;;;;;;;3.27;72.43;102416.38;7290325;19;20542;-69
2024/01/10 05:18:38;;;;;;;;;;;;;;;3.27;72.20;102421.56;7290274;19;20441;-69
2024/01/10 05:21:05;;;;;;;;;;;;;;;3.26;71.79;102412.91;7296623;19;19947;-70
2024/01/10 05:23:32;;;;;;;;;;;;;;;3.27;72.05;102418.97;7288674;19;20009;-71
2024/01/10 05:25:59;;;;;;;;;;;;;;;3.24;71.66;102425.16;7287374;19;19931;-70
2024/01/10 05:28:26;;;;;;;;;;;;;;;3.18;71.75;102406.38;7280742;19;20243;-71
2024/01/10 05:30:53;;;;;;;;;;;;;;;3.22;72.10;102415.72;7296845;19;20528;-70
2024/01/10 05:33:20;;;;;;;;;;;;;;;3.20;72.25;102415.78;7294520;19;19937;-69
2024/01/10 05:35:47;;;;;;;;;;;;;;;3.25;72.33;102416.44;7291706;19;20396;-68
2024/01/10 05:38:14;;;;;;;;;;;;;;;3.28;71.43;102411.09;7286863;19;19915;-71
2024/01/10 05:40:42;;;;;;;;;;;;;;;3.27;71.70;102409.41;7296381;19;19923;-70
2024/01/10 05:43:12;;;;;;;;;;;;;;;3.33;71.96;102409.16;7291272;19;20208;-69
2024/01/10 05:45:39;;;;;;;;;;;;;;;3.36;71.92;102411.59;7294861;19;20344;-70
2024/01/10 05:48:07;;;;;;;;;;;;;;;3.38;70.25;102408.94;7278763;19;20644;-69
2024/01/10 05:50:34;;;;;;;;;;;;;;;3.35;70.58;102409.91;7288461;19;19923;-69
2024/01/10 05:53:02;;;;;;;;;;;;;;;3.36;70.38;102413.34;7291513;19;20018;-70
2024/01/10 05:55:32;;;;;;;;;;;;;;;3.35;70.98;102403.91;7302384;19;20711;-69
2024/01/10 05:57:59;;;;;;;;;;;;;;;3.37;70.13;102408.09;7293756;19;19998;-69
2024/01/10 06:00:26;;;;;;;;;;;;;;;3.35;69.73;102412.50;7300440;19;20449;-69
2024/01/10 06:02:55;;;;;;;;;;;;;;;3.31;71.36;102418.75;7287414;19;19973;-70
2024/01/10 06:05:22;;;;;;;;;;;;;;;3.32;71.31;102411.81;7291876;19;19938;-69
2024/01/10 06:07:52;;;;;;;;;;;;;;;3.35;70.01;102415.09;7284950;19;19923;-71
2024/01/10 06:10:19;;;;;;;;;;;;;;;3.37;70.67;102413.31;7278331;19;19923;-69
2024/01/10 06:13:01;;;;;;;;;;;;;;;3.36;70.08;102410.75;7277964;19;19930;-70
2024/01/10 06:15:34;;;;;;;;;;;;;;;3.37;71.08;102413.31;7283085;19;20593;-70
2024/01/10 06:18:01;;;;;;;;;;;;;;;3.40;70.71;102420.97;7289700;19;19961;-71
2024/01/10 06:20:28;;;;;;;;;;;;;;;3.37;69.78;102415.91;7278560;19;19930;-69
2024/01/10 06:22:55;;;;;;;;;;;;;;;3.38;70.51;102424.56;7291703;19;20546;-71
2024/01/10 06:25:42;;;;;;;;;;;;;;;3.38;70.04;102416.75;7292310;19;19922;-72
2024/01/10 06:28:09;;;;;;;;;;;;;;;3.39;69.70;102427.09;7295786;19;19915;-69
2024/01/10 06:30:36;;;;;;;;;;;;;;;3.38;70.61;102422.78;7286230;19;20867;-69
2024/01/10 06:33:06;;;;;;;;;;;;;;;3.40;70.32;102423.56;7276297;19;21385;-69
2024/01/10 06:35:34;;;;;;;;;;;;;;;3.40;70.18;102418.34;7296711;19;19925;-69
2024/01/10 06:38:03;;;;;;;;;;;;;;;3.44;70.72;102424.28;7313624;19;19922;-71
2024/01/10 06:40:31;;;;;;;;;;;;;;;3.45;69.70;102426.81;7287716;19;20806;-69
2024/01/10 06:42:58;;;;;;;;;;;;;;;3.44;70.65;102425.13;7279947;19;20124;-69
2024/01/10 06:45:26;;;;;;;;;;;;;;;3.44;71.16;102421.69;7289198;19;19931;-69
2024/01/10 06:47:53;;;;;;;;;;;;;;;3.45;69.88;102426.00;7281525;19;20238;-69
2024/01/10 06:50:21;;;;;;;;;;;;;;;3.44;70.19;102424.28;7287138;19;20913;-69
2024/01/10 06:52:48;;;;;;;;;;;;;;;3.43;70.27;102422.59;7291649;19;19923;-69
2024/01/10 06:55:15;;;;;;;;;;;;;;;3.42;69.76;102432.16;7284627;19;19923;-68
2024/01/10 06:57:42;;;;;;;;;;;;;;;3.38;70.28;102419.34;7295068;19;19927;-69
2024/01/10 07:00:10;;;;;;;;;;;;;;;3.41;70.13;102419.19;7273628;19;19942;-69
2024/01/10 07:02:37;;;;;;;;;;;;;;;3.35;69.82;102422.91;7283507;19;20343;-69
2024/01/10 07:05:07;;;;;;;;;;;;;;;3.37;70.27;102426.31;7291129;19;19922;-70
2024/01/10 07:07:35;;;;;;;;;;;;;;;3.38;70.06;102421.94;7290667;19;19978;-70
2024/01/10 07:10:05;;;;;;;;;;;;;;;3.37;70.70;102423.72;7288856;19;19915;-70
2024/01/10 07:12:34;;;;;;;;;;;;;;;3.35;69.97;102422.09;7287415;19;19934;-69
2024/01/10 07:15:03;;;;;;;;;;;;;;;3.33;71.25;102422.16;7289389;19;19923;-69
2024/01/10 07:17:30;;;;;;;;;;;;;;;3.35;69.86;102430.72;7293930;19;20001;-70
2024/01/10 07:19:57;;;;;;;;;;;;;;;3.39;70.52;102416.69;7297894;19;19930;-70
2024/01/10 07:22:24;;;;;;;;;;;;;;;3.42;70.26;102426.94;7289687;19;21038;-69
2024/01/10 07:24:51;;;;;;;;;;;;;;;3.42;70.26;102436.50;7288274;19;19926;-71
2024/01/10 07:27:19;;;;;;;;;;;;;;;3.44;71.38;102429.50;7290488;19;19923;-69
2024/01/10 07:29:47;;;;;;;;;;;;;;;3.43;70.23;102427.78;7302946;19;19959;-71
2024/01/10 07:32:15;;;;;;;;;;;;;;;3.44;70.50;102432.94;7315786;19;19962;-69
2024/01/10 07:34:44;;;;;;;;;;;;;;;3.47;70.93;102428.50;7307153;19;20890;-70
2024/01/10 07:37:13;;;;;;;;;;;;;;;3.50;70.11;102437.03;7278688;19;19939;-70
2024/01/10 07:39:40;;;;;;;;;;;;;;;3.50;69.95;102434.44;7284911;19;19978;-70
2024/01/10 07:42:06;;;;;;;;;;;;;;;3.52;69.23;102435.19;7302570;19;19920;-71
2024/01/10 07:44:33;;;;;;;;;;;;;;;3.49;69.08;102437.94;7279751;19;20260;-69
2024/01/10 07:47:01;;;;;;;;;;;;;;;3.53;70.18;102442.09;7289579;19;19923;-69
2024/01/10 07:49:29;;;;;;;;;;;;;;;3.53;69.57;102444.69;7295947;19;20860;-70
2024/01/10 07:51:57;;;;;;;;;;;;;;;3.50;70.32;102442.25;7295090;19;19923;-68
2024/01/10 07:54:24;;;;;;;;;;;;;;;3.50;71.42;102439.63;7299063;19;19919;-69
2024/01/10 07:57:11;;;;;;;;;;;;;;;3.57;69.26;102453.19;7283892;19;19915;-70
2024/01/10 07:59:38;;;;;;;;;;;;;;;3.58;70.69;102450.53;7285811;19;19998;-69
2024/01/10 08:02:19;;;;;;;;;;;;;;;3.66;73.92;102445.81;7287806;19;19923;-70
2024/01/10 08:05:05;;;;;;;;;;;;;;;3.70;72.21;102452.59;7282168;19;20737;-70
2024/01/10 08:07:33;;;;;;;;;;;;;;;3.73;69.29;102452.47;7296610;19;19937;-71
2024/01/10 08:10:02;;;;;;;;;;;;;;;3.76;69.96;102449.69;7291274;19;19963;-69
2024/01/10 08:12:44;;;;;;;;;;;;;;;3.71;69.88;102446.47;7283603;19;19930;-69
2024/01/10 08:15:25;;;;;;;;;;;;;;;3.78;69.05;102462.66;7279702;19;20411;-71
2024/01/10 08:18:07;;;;;;;;;;;;;;;3.82;69.79;102459.84;7290020;19;19966;-68
2024/01/10 08:20:38;;;;;;;;;;;;;;;3.84;68.87;102459.78;7291475;19;19923;-70
2024/01/10 08:23:05;;;;;;;;;;;;;;;3.80;68.48;102456.50;7301699;19;20404;-69
2024/01/10 08:25:32;;;;;;;;;;;;;;;3.85;68.34;102458.88;7285634;19;19919;-71
2024/01/10 08:28:00;;;;;;;;;;;;;;;3.82;68.49;102456.41;7291742;19;19915;-70
2024/01/10 08:30:29;;;;;;;;;;;;;;;3.83;68.72;102469.34;7280891;19;19934;-69
2024/01/10 08:32:58;;;;;;;;;;;;;;;3.88;67.96;102467.38;7332687;19;19934;-70
2024/01/10 08:35:25;;;;;;;;;;;;;;;3.90;68.02;102469.94;7321654;19;20010;-71
2024/01/10 08:37:55;;;;;;;;;;;;;;;3.88;68.09;102477.81;7295200;19;19925;-70
2024/01/10 08:40:25;;;;;;;;;;;;;;;3.88;68.33;102470.00;7292200;19;20154;-69
2024/01/10 08:42:53;;;;;;;;;;;;;;;3.90;67.60;102480.34;7305359;19;19923;-69
2024/01/10 08:45:22;;;;;;;;;;;;;;;3.91;67.77;102474.22;7306047;19;19918;-71
2024/01/10 08:47:53;;;;;;;;;;;;;;;3.94;68.13;102471.47;7307051;19;19919;-70
2024/01/10 08:50:22;;;;;;;;;;;;;;;4.01;67.88;102474.66;7285965;19;21374;-69
2024/01/10 08:52:52;;;;;;;;;;;;;;;4.00;67.95;102480.78;7284660;19;19923;-70
2024/01/10 08:55:21;;;;;;;;;;;;;;;3.98;68.40;102479.97;7294615;19;19930;-70
2024/01/10 08:57:48;;;;;;;;;;;;;;;3.98;68.24;102483.44;7296389;19;19964;-70
2024/01/10 09:00:17;;;;;;;;;;;;;;;3.92;68.42;102478.50;7290095;19;19922;-70
2024/01/10 09:02:45;;;;;;;;;;;;;;;3.94;68.44;102492.31;7302237;19;20787;-70
2024/01/10 09:05:12;;;;;;;;;;;;;;;3.92;69.79;102478.50;7295511;19;19926;-72
2024/01/10 09:07:40;;;;;;;;;;;;;;;3.96;69.32;102487.88;7291890;19;19926;-70
2024/01/10 09:10:08;;;;;;;;;;;;;;;4.01;69.05;102483.31;7296441;19;19927;-70
2024/01/10 09:12:36;;;;;;;;;;;;;;;4.03;69.44;102484.06;7297902;19;19935;-70
2024/01/10 09:15:03;;;;;;;;;;;;;;;4.13;69.80;102487.09;7301752;19;19927;-68
2024/01/10 09:17:31;;;;;;;;;;;;;;;4.13;69.39;102481.88;7294348;19;19934;-68
2024/01/10 09:19:58;;;;;;;;;;;;;;;4.14;69.05;102479.22;7295301;19;19927;-69
2024/01/10 09:22:26;;;;;;;;;;;;;;;4.17;69.66;102480.81;7285821;19;20834;-69
2024/01/10 09:24:53;;;;;;;;;;;;;;;4.22;69.21;102486.66;7290771;19;19929;-69
2024/01/10 09:27:22;;;;;;;;;;;;;;;4.27;69.00;102489.91;7292675;19;19974;-69
2024/01/10 09:29:50;;;;;;;;;;;;;;;4.29;69.08;102490.69;7299077;19;19971;-68
2024/01/10 09:32:18;;;;;;;;;;;;;;;4.25;69.35;102494.34;7291854;19;19935;-70
2024/01/10 09:34:46;;;;;;;;;;;;;;;4.29;69.49;102495.91;7306393;19;20260;-69
2024/01/10 09:37:14;;;;;;;;;;;;;;;4.27;69.30;102497.72;7285643;19;19926;-70
2024/01/10 09:39:42;;;;;;;;;;;;;;;4.29;70.01;102491.53;7275119;19;22330;-69
2024/01/10 09:42:09;;;;;;;;;;;;;;;4.41;70.65;102490.13;7278633;19;19931;-69
2024/01/10 09:44:36;;;;;;;;;;;;;;;4.46;69.00;102488.16;7305801;19;19919;-69
2024/01/10 09:47:05;;;;;;;;;;;;;;;4.55;68.70;102486.88;7295257;19;19919;-69
2024/01/10 09:49:33;;;;;;;;;;;;;;;4.58;68.78;102486.72;7293471;19;20367;-70
2024/01/10 09:52:04;;;;;;;;;;;;;;;4.61;68.60;102490.03;7279039;19;20271;-69
2024/01/10 09:54:30;;;;;;;;;;;;;;;4.63;68.21;102488.19;7285995;19;19982;-69
2024/01/10 09:56:58;;;;;;;;;;;;;;;4.58;69.48;102489.31;7300720;19;19947;-70
2024/01/10 09:59:26;;;;;;;;;;;;;;;4.67;68.31;102489.72;7282011;19;19923;-70
2024/01/10 10:01:55;;;;;;;;;;;;;;;4.77;68.06;102486.69;7287585;19;19922;-68
2024/01/10 10:04:23;;;;;;;;;;;;;;;4.80;68.10;102489.13;7283165;19;20392;-70
2024/01/10 10:07:01;;;;;;;;;;;;;;;4.80;67.65;102489.13;7287528;19;19923;-69
2024/01/10 10:09:30;;;;;;;;;;;;;;;4.87;67.38;102500.97;7287353;19;20734;-69
2024/01/10 10:11:57;;;;;;;;;;;;;;;4.94;67.33;102497.13;7275355;19;21628;-70
2024/01/10 10:14:28;;;;;;;;;;;;;;;5.03;66.83;102491.44;7292293;19;19933;-71
2024/01/10 10:16:59;;;;;;;;;;;;;;;5.04;66.40;102496.59;7296000;19;19975;-69
2024/01/10 10:19:27;;;;;;;;;;;;;;;5.03;66.85;102487.06;7286785;19;19974;-69
2024/01/10 10:22:09;;;;;;;;;;;;;;;5.10;66.99;102485.88;7291760;19;19922;-70
2024/01/10 10:24:37;;;;;;;;;;;;;;;5.10;65.89;102488.47;7294734;19;20353;-69
2024/01/10 10:27:09;;;;;;;;;;;;;;;5.13;66.12;102479.63;7277237;19;19919;-70
2024/01/10 10:29:37;;;;;;;;;;;;;;;5.12;66.71;102484.03;7292025;19;19929;-69
2024/01/10 10:32:06;;;;;;;;;;;;;;;5.14;65.97;102483.94;7283440;19;20379;-70
2024/01/10 10:34:36;;;;;;;;;;;;;;;5.18;66.94;102488.91;7277079;19;20097;-70
2024/01/10 10:37:03;;;;;;;;;;;;;;;5.21;67.08;102484.47;7291577;19;20038;-68
2024/01/10 10:39:32;;;;;;;;;;;;;;;5.31;65.97;102486.56;7289087;19;20018;-69
2024/01/10 10:42:00;;;;;;;;;;;;;;;5.41;65.94;102482.56;7293903;19;21004;-69
2024/01/10 10:44:29;;;;;;;;;;;;;;;5.47;65.81;102481.41;7282825;19;19933;-68
2024/01/10 10:47:00;;;;;;;;;;;;;;;5.51;64.57;102481.16;7280868;19;19923;-67
2024/01/10 10:49:41;;;;;;;;;;;;;;;5.54;64.74;102487.97;7298612;19;19919;-70
2024/01/10 10:52:09;;;;;;;;;;;;;;;5.54;64.78;102483.59;7292792;19;19918;-68
2024/01/10 10:54:38;;;;;;;;;;;;;;;5.56;64.35;102487.00;7302370;19;19923;-67
2024/01/10 10:57:05;;;;;;;;;;;;;;;5.57;64.48;102480.84;7284645;19;20477;-68
2024/01/10 10:59:33;;;;;;;;;;;;;;;5.67;65.01;102480.38;7290816;19;20003;-69
2024/01/10 11:02:01;;;;;;;;;;;;;;;5.69;64.75;102473.31;7291479;19;20449;-69
2024/01/10 11:04:29;;;;;;;;;;;;;;;5.72;64.58;102473.13;7294185;19;19998;-68
2024/01/10 11:06:56;;;;;;;;;;;;;;;5.76;64.71;102472.88;7292674;19;19930;-68
2024/01/10 11:09:24;;;;;;;;;;;;;;;5.84;64.40;102472.50;7305042;19;19927;-69
2024/01/10 11:11:51;;;;;;;;;;;;;;;5.86;63.35;102468.88;7308835;19;20855;-68
2024/01/10 11:14:27;;;;;;;;;;;;;;;5.91;63.61;102472.09;7297850;19;19934;-68
2024/01/10 11:17:14;;;;;;;;;;;;;;;5.90;63.72;102472.19;7302361;19;19923;-68
2024/01/10 11:20:00;;;;;;;;;;;;;;;6.02;63.18;102487.22;7300647;19;19918;-69
2024/01/10 11:22:49;;;;;;;;;;;;;;;6.05;63.11;102484.41;7297521;19;19980;-67
2024/01/10 11:25:17;;;;;;;;;;;;;;;5.98;62.63;102478.69;7288078;19;19922;-68
2024/01/10 11:27:47;;;;;;;;;;;;;;;6.01;63.00;102469.84;7287681;19;19938;-71
2024/01/10 11:30:29;;;;;;;;;;;;;;;6.04;62.67;102469.69;7298460;19;20695;-68
2024/01/10 11:32:56;;;;;;;;;;;;;;;6.08;62.53;102476.44;7297834;19;20473;-70
2024/01/10 11:35:24;;;;;;;;;;;;;;;6.05;62.76;102473.97;7295170;19;19919;-69
2024/01/10 11:37:51;;;;;;;;;;;;;;;5.99;62.27;102480.38;7296075;19;19927;-67
2024/01/10 11:40:38;;;;;;;;;;;;;;;6.03;62.18;102469.78;7290374;19;19914;-69
2024/01/10 11:43:12;;;;;;;;;;;;;;;6.05;62.42;102476.56;7293866;19;20900;-69
2024/01/10 11:45:49;;;;;;;;;;;;;;;6.09;61.57;102479.88;7310465;19;20604;-70
2024/01/10 11:48:17;;;;;;;;;;;;;;;5.97;61.46;102466.56;7297311;19;19923;-71
2024/01/10 11:50:44;;;;;;;;;;;;;;;6.10;61.37;102477.19;7295736;19;20660;-69
2024/01/10 11:53:11;;;;;;;;;;;;;;;6.19;62.18;102461.03;7291572;19;20584;-68
2024/01/10 11:55:51;;;;;;;;;;;;;;;6.18;61.44;102471.53;7301665;19;20338;-68
2024/01/10 11:58:18;;;;;;;;;;;;;;;6.19;60.71;102470.63;7285131;19;19972;-69
2024/01/10 12:00:46;;;;;;;;;;;;;;;6.19;60.87;102458.41;7280355;19;20344;-68
2024/01/10 12:03:14;;;;;;;;;;;;;;;6.20;60.76;102451.38;7295307;19;19931;-69
2024/01/10 12:05:41;;;;;;;;;;;;;;;6.26;61.11;102464.97;7299330;19;21013;-68
2024/01/10 12:08:09;;;;;;;;;;;;;;;6.20;59.86;102454.00;7295376;19;20174;-68
2024/01/10 12:10:37;;;;;;;;;;;;;;;6.28;60.21;102470.97;7302789;19;19926;-69
2024/01/10 12:13:04;;;;;;;;;;;;;;;6.31;60.61;102446.41;7296713;19;19926;-69
2024/01/10 12:15:34;;;;;;;;;;;;;;;6.39;60.00;102452.06;7312018;19;20775;-69
2024/01/10 12:18:01;;;;;;;;;;;;;;;6.36;59.88;102447.00;7285665;19;19985;-70
2024/01/10 12:20:28;;;;;;;;;;;;;;;6.39;59.86;102436.41;7288487;19;20399;-68
2024/01/10 12:22:56;;;;;;;;;;;;;;;6.47;59.98;102436.78;7288331;19;19955;-68
2024/01/10 12:25:23;;;;;;;;;;;;;;;6.48;59.45;102435.03;7290918;19;19926;-70
2024/01/10 12:27:50;;;;;;;;;;;;;;;6.49;59.56;102424.50;7281171;19;20489;-70
2024/01/10 12:30:18;;;;;;;;;;;;;;;6.47;59.49;102428.09;7279368;19;19937;-69
2024/01/10 12:32:50;;;;;;;;;;;;;;;6.54;59.33;102419.84;7299106;19;19922;-69
2024/01/10 12:35:19;;;;;;;;;;;;;;;6.60;60.05;102411.66;7290214;19;19922;-68
2024/01/10 12:37:56;;;;;;;;;;;;;;;6.61;59.70;102408.09;7285096;19;19919;-68
2024/01/10 12:40:23;;;;;;;;;;;;;;;6.71;58.52;102411.00;7295448;19;19919;-70
2024/01/10 12:43:01;;;;;;;;;;;;;;;6.72;58.72;102408.31;7292047;19;19915;-68
2024/01/10 12:45:28;;;;;;;;;;;;;;;6.75;58.84;102413.38;7289938;19;19914;-69
2024/01/10 12:47:55;;;;;;;;;;;;;;;6.76;58.06;102401.97;7291287;19;19918;-71
2024/01/10 12:50:24;;;;;;;;;;;;;;;6.82;57.47;102400.78;7295644;19;20288;-69
2024/01/10 12:52:52;;;;;;;;;;;;;;;6.69;57.30;102403.28;7300126;19;19923;-69
2024/01/10 12:55:19;;;;;;;;;;;;;;;6.64;57.67;102413.16;7292312;19;19918;-69
2024/01/10 12:57:45;;;;;;;;;;;;;;;6.66;57.41;102398.19;7283873;19;19925;-67